Date,TemperatureHighF,TemperatureAvgF,TemperatureLowF,DewpointHighF,DewpointAvgF,DewpointLowF,HumidityHigh,HumidityAvg,HumidityLow,PressureMaxIn,PressureMinIn,WindSpeedMaxMPH,WindSpeedAvgMPH,GustSpeedMaxMPH,PrecipitationSumIn
2012-1-1,41,34,26,30,17,0,75,52,20,30.62,30.02,48,21,41,0.57
2012-1-2,33,23,13,13,8,2,70,55,31,30.71,30.53,30,11,21,0.00
2012-1-3,49,32,16,30,19,6,69,59,44,30.53,30.02,34,12,0,0.00
2012-1-4,56,43,32,30,28,24,73,55,34,30.32,30.10,31,9,27,0.00
2012-1-5,67,49,32,33,29,24,73,49,27,30.12,29.72,24,6,0,0.00
2012-1-6,49,42,33,33,27,20,78,57,40,30.09,29.70,31,12,0,0.00
2012-1-7,42,33,22,25,22,16,81,65,47,30.30,30.09,9,3,0,0.00
2012-1-8,45,34,26,28,24,19,84,69,45,30.40,30.30,9,1,0,0.00
2012-1-9,52,36,26,29,25,22,92,66,36,30.30,30.08,17,4,0,0.00
2012-1-10,60,41,26,34,29,22,85,64,37,30.08,29.71,12,4,0,0.00
2012-1-11,38,31,20,34,24,12,89,76,65,30.04,29.60,59,24,0,0.00
2012-1-12,20,14,10,12,7,4,83,72,64,30.13,30.02,44,21,0,0.00
2012-1-13,10,9,8,4,3,2,76,75,74,30.13,30.12,16,11,0,0.00
2012-1-15,54,46,38,29,25,23,56,45,34,29.86,29.78,28,-13,30,0.00
2012-1-16,43,32,20,28,22,13,87,66,54,29.96,29.73,34,15,34,0.00
2012-1-17,22,15,4,16,9,0,90,77,60,30.42,29.95,39,15,41,0.00
2012-1-18,34,20,4,25,14,1,92,76,64,30.37,29.89,32,13,39,0.00
2012-1-19,15,9,6,8,0,-3,75,68,55,30.25,30.00,29,12,29,0.00
2012-1-20,22,13,8,12,5,-2,82,71,54,30.31,29.98,27,12,28,0.00
2012-1-21,23,17,9,20,12,4,87,81,78,30.30,29.69,39,15,40,0.00
2012-1-22,46,34,23,40,30,20,100,85,64,29.70,29.42,38,17,40,0.00
2012-1-23,33,27,14,30,23,11,93,84,75,30.11,29.63,41,14,43,0.00
2012-1-24,36,26,12,31,22,9,94,87,80,30.30,30.11,20,7,20,0.00
2012-1-25,42,32,26,33,29,25,100,88,72,30.27,29.96,15,4,15,0.00
2012-1-26,48,36,23,33,27,18,94,72,47,29.99,29.91,39,11,43,0.00
2012-1-27,43,33,25,31,25,17,86,73,47,30.26,29.88,36,10,38,0.00
2012-1-28,45,32,20,19,15,10,83,54,25,30.30,30.20,33,9,37,0.00
2012-1-29,42,33,20,22,17,11,71,51,39,30.28,29.96,22,8,22,0.00
2012-1-30,69,51,38,38,27,21,67,41,20,29.96,29.73,29,12,30,0.00
2012-1-31,60,45,32,40,32,25,92,63,37,30.09,29.75,32,9,32,0.00
2012-2-1,61,43,26,32,25,20,82,53,26,30.17,30.08,17,3,20,0.00
2012-2-2,57,40,24,32,27,18,83,60,38,30.26,30.17,17,6,18,0.00
2012-2-3,46,40,33,38,35,31,96,83,56,30.27,30.13,37,16,38,0.36
2012-2-4,40,36,33,37,35,32,96,94,90,30.19,30.18,31,25,26,0.00
2012-2-5,40,20,8,38,16,6,95,87,74,30.43,30.18,34,1,38,0.32
2012-2-6,38,23,8,31,20,6,100,86,74,30.35,30.25,16,-2,38,0.32
2012-2-7,32,29,24,29,26,21,93,90,81,30.56,30.29,24,16,28,0.07
2012-2-8,31,24,21,25,20,18,95,84,71,30.58,30.41,14,4,16,0.00
2012-2-9,34,29,24,31,26,21,95,89,79,30.41,30.09,24,7,24,0.00
2012-2-10,29,15,2,26,8,-4,89,73,57,30.66,30.12,48,22,48,0.00
2012-2-11,14,5,-2,1,-3,-7,80,70,56,30.90,30.65,22,9,24,0.00
2012-2-12,30,15,-3,18,6,-7,84,69,49,30.73,30.12,25,8,27,0.00
2012-2-13,32,28,24,31,26,16,97,93,62,30.12,29.77,32,9,32,0.00
2012-2-14,39,28,14,34,26,12,96,89,78,29.92,29.83,19,5,19,0.00
2012-2-15,36,32,23,34,30,21,100,92,83,30.19,29.89,22,7,22,0.00
2012-2-16,41,33,24,32,26,20,90,79,62,30.35,30.14,15,6,19,0.00
2012-2-17,41,34,27,31,28,23,86,77,64,30.28,30.07,20,8,21,0.00
2012-2-18,41,28,17,25,21,14,92,76,49,30.34,30.19,8,2,9,0.00
2012-2-19,43,32,20,33,26,18,93,80,62,30.19,30.00,27,9,27,0.00
2012-2-20,41,37,33,41,34,27,98,89,76,30.01,29.61,34,17,35,0.05
2012-2-21,47,38,32,34,31,28,94,77,57,29.91,29.66,30,9,34,0.00
2012-2-22,53,43,36,40,35,29,88,73,57,29.66,29.39,19,6,19,0.00
2012-2-23,46,38,31,41,35,29,94,88,73,29.85,29.26,48,18,53,0.03
2012-2-24,43,33,27,32,26,16,94,76,46,30.30,29.85,46,16,46,0.03
2012-2-25,39,30,18,28,20,12,82,68,55,30.35,29.75,41,14,42,0.00
2012-2-26,54,43,29,30,27,22,77,55,37,30.31,29.73,33,12,37,0.00
2012-2-27,40,29,18,24,19,12,82,66,44,30.57,30.31,22,9,22,0.00
2012-2-28,54,43,34,52,38,23,97,82,59,30.32,29.34,36,17,40,1.08
2012-2-29,44,35,30,37,28,24,88,76,64,29.90,29.43,48,20,52,1.08
2012-3-1,53,36,25,37,31,23,94,81,51,29.90,29.65,28,9,29,0.00
2012-3-2,47,36,30,32,27,21,94,71,43,29.97,29.69,36,16,36,0.00
2012-3-3,41,32,25,25,21,19,86,66,46,30.04,29.95,38,13,40,0.00
2012-3-4,53,36,25,38,27,21,88,71,42,30.25,29.86,52,13,53,0.00
2012-3-5,59,40,21,34,26,18,91,61,31,30.29,29.81,37,12,39,0.00
2012-3-6,69,60,51,51,41,34,72,50,36,29.81,29.59,39,21,41,0.00
2012-3-7,61,46,32,52,39,26,91,75,64,30.14,29.52,44,23,46,0.00
2012-3-8,51,37,24,26,18,9,84,51,20,30.47,30.11,33,10,33,0.00
2012-3-9,64,44,25,27,21,16,75,42,18,30.59,30.32,38,11,40,0.00
2012-3-10,67,52,38,30,26,18,64,40,16,30.32,30.05,42,16,48,0.00
2012-3-11,48,46,41,46,40,29,98,82,53,30.09,29.74,28,12,34,0.18
2012-3-12,70,52,42,51,46,41,98,81,50,29.95,29.69,24,8,26,0.03
2012-3-13,80,59,40,53,45,38,96,66,24,30.00,29.77,35,11,36,0.00
2012-3-14,78,66,56,60,52,40,94,65,35,29.92,29.73,32,9,32,0.00
2012-3-15,78,60,43,62,52,36,97,75,51,29.99,29.87,21,4,21,0.00
2012-3-16,80,64,50,62,57,49,99,80,46,29.93,29.76,25,8,26,0.00
2012-3-17,81,70,61,63,60,58,94,75,49,29.80,29.64,44,19,44,0.00
2012-3-18,80,70,63,61,60,59,87,73,52,29.72,29.62,44,22,44,0.00
2012-3-19,70,62,55,61,56,50,94,83,52,29.68,29.50,33,14,33,0.15
2012-3-20,58,55,53,55,54,52,100,95,89,29.88,29.67,25,8,27,0.21
2012-3-21,61,57,54,59,56,53,99,96,91,29.94,29.82,8,1,8,0.15
2012-3-22,64,55,47,58,50,46,98,83,54,29.96,29.82,0,0,0,0.11
2012-3-23,71,56,45,52,48,45,98,77,41,29.97,29.88,0,0,0,0.11
2012-3-24,78,62,48,50,46,42,85,60,30,30.01,29.93,0,0,0,0.00
2012-3-25,80,63,46,56,49,43,93,63,30,30.08,29.94,0,0,0,0.00
2012-3-26,82,69,59,59,54,50,75,60,39,29.99,29.70,0,0,0,0.00
2012-3-27,78,68,62,56,43,28,80,44,17,29.93,29.68,0,0,0,0.00
2012-3-28,76,62,45,45,39,35,76,47,25,30.03,29.87,0,0,0,0.00
2012-3-29,70,61,56,62,54,43,96,79,47,29.88,29.62,22,2,0,0.00
2012-3-30,79,62,50,58,52,43,98,72,32,29.82,29.68,17,7,0,0.00
2012-3-31,88,70,54,62,53,46,89,60,25,29.75,29.58,39,11,23,0.00
2012-4-1,88,74,59,64,61,56,92,66,36,29.60,29.36,33,12,22,0.17
2012-4-2,88,73,57,64,58,51,89,63,34,29.77,29.37,33,15,0,0.17
2012-4-3,69,58,50,53,48,45,86,71,50,29.94,29.77,34,16,0,0.17
2012-4-4,62,56,50,49,46,44,81,70,55,29.94,29.78,26,11,0,0.17
2012-4-5,66,56,48,49,40,33,91,60,32,30.09,29.84,20,7,0,0.17
2012-4-6,66,53,39,40,37,33,80,57,34,30.18,29.94,37,15,0,0.17
2012-4-7,62,54,41,50,36,22,96,56,24,30.37,29.99,36,15,0,0.17
2012-4-8,71,54,34,38,31,25,80,46,25,30.40,30.12,31,8,0,0.17
2012-4-9,67,54,39,28,24,19,62,33,18,30.25,30.14,28,8,0,0.17
2012-4-10,60,48,35,24,21,17,58,36,20,30.32,30.19,26,8,0,0.17
2012-4-11,58,45,29,26,21,18,66,41,22,30.41,30.19,20,4,0,0.17
2012-4-12,50,48,43,46,37,25,93,68,48,30.21,29.87,0,0,0,0.04
2012-4-13,76,61,48,58,47,40,93,66,30,29.87,29.67,0,0,0,0.01
2012-4-14,64,56,45,62,53,40,97,88,66,29.81,29.34,0,0,0,0.01
2012-4-15,68,60,44,63,51,37,97,76,33,29.53,29.26,55,10,60,0.01
2012-4-16,59,50,43,42,39,34,88,66,42,30.25,29.53,48,16,49,0.01
2012-4-17,72,56,42,52,45,38,92,70,43,30.30,30.04,34,13,34,0.01
2012-4-18,74,63,53,56,52,46,87,67,50,30.05,29.83,25,7,27,0.01
2012-4-19,65,54,44,58,50,41,95,86,71,29.94,29.65,33,15,33,0.00
2012-4-20,58,48,39,41,35,28,92,64,37,30.13,29.94,33,14,33,0.00
2012-4-21,72,56,40,44,36,30,78,51,22,30.08,29.89,41,13,41,0.00
2012-4-22,61,51,42,39,36,31,80,60,36,30.28,30.04,44,19,44,0.00
2012-4-23,70,54,36,41,36,29,91,56,25,30.28,29.89,18,4,18,0.00
2012-4-24,88,69,52,53,47,39,72,49,19,29.89,29.53,21,6,21,0.00
2012-4-25,91,76,60,56,48,35,76,41,16,29.76,29.45,37,11,41,0.00
2012-4-26,74,66,53,50,44,41,74,48,31,29.99,29.75,24,10,24,0.00
2012-4-27,61,55,49,47,42,38,88,62,45,29.96,29.58,43,14,45,0.07
2012-4-28,62,52,45,50,47,43,95,82,61,30.10,29.69,24,9,24,0.05
2012-4-29,50,48,45,49,47,43,97,96,90,30.09,29.99,21,7,22,0.04
2012-4-30,69,57,48,57,52,47,97,85,59,30.05,29.81,26,7,27,0.05
2012-5-1,83,70,58,68,62,56,98,78,54,29.82,29.53,35,16,37,0.05
2012-5-2,82,73,61,70,66,56,94,80,60,29.69,29.54,54,10,58,0.01
2012-5-3,85,71,61,70,65,57,95,82,60,29.80,29.64,42,8,42,0.01
2012-5-4,88,76,65,74,68,64,99,81,48,29.79,29.67,27,8,28,0.01
2012-5-5,92,80,69,72,69,62,97,73,39,29.77,29.63,35,14,38,0.00
2012-5-6,75,66,59,68,61,54,97,83,71,30.01,29.68,51,19,60,0.01
2012-5-7,68,59,52,54,46,41,86,64,40,30.12,30.00,30,14,31,0.00
2012-5-8,68,56,47,44,41,35,85,58,33,30.10,30.01,31,11,33,0.00
2012-5-9,71,54,44,46,42,40,87,65,35,30.13,29.96,21,7,22,0.00
2012-5-22,85,78,69,50,47,43,46,34,27,29.95,29.65,0,0,0,0.00
2012-5-23,92,78,65,63,56,47,59,48,34,29.65,29.30,0,0,0,0.00
2012-5-24,79,66,56,64,57,52,92,75,52,29.78,29.34,0,0,0,0.00
2012-5-25,77,66,56,62,56,48,95,73,38,29.94,29.78,0,0,0,0.00
2012-5-26,96,79,65,73,67,58,86,67,39,29.88,29.68,0,0,0,0.00
2012-5-27,92,82,72,69,65,61,77,58,40,29.74,29.52,0,0,0,0.00
2012-5-28,80,71,61,65,55,39,98,63,26,29.83,29.60,0,0,0,0.00
2012-5-29,76,65,56,52,45,40,78,51,28,30.03,29.82,0,0,0,0.00
2012-5-30,70,60,51,58,48,41,95,69,40,30.04,29.78,0,0,0,0.00
2012-6-23,84,78,71,73,70,64,92,76,64,0.00,40.00,28,12,31,3.28
2012-6-24,91,81,71,77,73,69,94,78,56,29.86,29.82,22,7,23,0.00
2012-6-25,85,78,72,76,72,66,94,82,71,29.92,29.85,21,10,23,0.00
2012-6-26,86,76,65,73,65,56,84,70,61,29.88,29.64,28,15,31,0.00
2012-6-27,99,87,76,78,73,70,85,65,45,29.70,29.60,28,13,31,0.00
2012-6-28,96,85,73,82,76,69,93,75,60,29.85,29.70,14,4,21,0.00
2012-6-29,90,83,75,76,71,64,89,69,49,29.85,29.70,25,5,29,0.00
2012-6-30,93,80,68,77,72,66,95,78,53,29.80,29.71,13,3,14,0.00
2012-7-1,92,81,68,76,70,64,89,70,51,29.90,29.78,19,5,21,0.00
2012-7-2,92,83,73,73,70,66,80,66,45,29.89,29.78,23,8,26,0.00
2012-7-3,95,84,75,75,71,67,81,65,41,29.82,29.71,27,9,27,0.00
2012-7-4,96,86,77,74,69,62,76,57,44,29.79,29.71,26,10,26,0.00
2012-7-5,98,87,77,73,69,64,71,56,38,29.88,29.77,22,8,22,0.00
2012-7-6,99,87,75,77,70,65,74,58,35,29.90,29.84,21,7,22,0.00
2012-7-7,86,79,71,76,72,65,92,78,65,30.02,29.88,22,6,22,0.00
2012-7-8,81,76,70,71,67,64,86,76,62,30.10,30.00,20,6,23,0.00
2012-7-9,88,77,68,68,64,61,84,66,44,30.11,30.02,15,4,17,0.00
2012-7-10,84,74,62,64,60,54,91,65,39,30.12,30.04,19,6,21,0.00
2012-7-11,92,75,60,68,62,57,93,67,35,30.10,29.97,10,2,15,0.00
2012-7-12,94,78,64,72,64,53,93,66,27,30.00,29.89,15,2,15,0.00
2012-7-13,97,81,69,72,68,64,93,66,36,29.96,29.89,9,2,11,0.00
2012-7-14,98,82,67,72,67,59,91,64,29,29.99,29.89,15,3,18,0.00
2012-7-15,96,83,68,72,68,64,89,62,38,29.97,29.86,21,6,24,0.00
2012-7-16,92,82,68,70,66,61,80,62,42,29.90,29.74,22,7,24,0.00
2012-7-17,98,85,72,71,68,64,79,59,35,29.79,29.70,20,6,25,0.00
2012-7-18,97,84,74,74,69,64,80,61,38,29.83,29.73,15,4,18,0.00
2012-7-19,98,85,71,78,70,62,95,66,32,29.99,29.82,12,2,14,0.00
2012-7-20,95,82,70,74,69,66,91,68,43,30.06,29.97,14,4,17,0.00
2012-7-21,97,82,69,71,66,61,81,61,32,30.04,29.90,21,7,22,0.00
2012-7-22,102,86,72,68,63,60,74,51,26,30.00,29.86,31,8,31,0.00
2012-7-23,102,88,74,71,64,60,68,48,27,29.99,29.84,21,5,22,0.00
2012-7-24,101,89,78,69,66,64,64,48,32,29.86,29.68,23,9,25,0.00
2012-7-25,103,88,75,73,67,64,93,53,30,29.70,29.55,30,11,30,0.26
2012-7-26,94,81,72,74,69,59,97,71,33,29.87,29.70,18,4,20,0.30
2012-7-27,86,74,63,66,61,58,83,65,43,30.05,29.87,20,6,21,0.00
2012-7-28,88,77,64,66,63,59,91,65,47,30.11,29.90,29,10,29,0.00
2012-7-29,96,82,66,71,65,61,87,59,36,29.92,29.83,21,4,25,0.00
2012-7-30,98,82,73,71,67,59,89,65,30,29.94,29.83,18,4,20,0.00
2012-7-31,99,82,64,72,66,61,93,64,31,29.95,29.86,14,2,14,0.00
2012-8-1,97,83,71,70,66,61,80,59,31,29.91,29.74,20,5,20,0.00
2012-8-2,94,81,70,70,68,64,94,68,39,29.83,29.74,26,5,29,0.05
2012-8-3,95,82,68,73,69,65,93,68,40,29.84,29.68,20,4,25,0.00
2012-8-4,81,73,61,71,62,53,90,71,41,30.04,29.72,37,9,38,0.04
2012-8-5,85,71,56,63,56,52,91,63,38,30.24,30.04,17,4,19,0.00
2012-8-6,95,78,60,61,57,51,86,53,24,30.15,29.92,24,7,24,0.00
2012-8-7,102,83,70,77,62,56,77,50,26,29.93,29.83,19,4,22,0.02
2012-8-8,98,77,67,69,65,56,94,70,35,29.95,29.78,24,4,29,0.36
2012-8-9,84,72,64,65,62,56,95,72,41,30.02,29.92,22,8,27,0.00
2012-8-10,79,67,55,59,55,53,94,68,41,30.12,30.01,19,5,20,0.00
2012-8-11,82,67,52,62,56,49,94,70,38,30.10,29.92,17,4,19,0.01
2012-8-12,82,72,65,64,60,58,85,68,48,29.94,29.83,26,8,30,0.02
2012-8-13,80,67,59,62,58,54,94,75,44,30.10,29.94,24,7,26,0.00
2012-8-14,84,69,55,63,58,51,92,70,47,30.04,29.85,25,6,25,0.00
2012-8-15,91,75,58,67,62,56,95,68,43,29.87,29.67,28,9,31,0.00
2012-8-16,78,67,53,68,53,46,81,62,39,30.10,29.77,28,11,30,0.00
2012-8-17,79,63,46,52,46,42,90,58,28,30.16,30.01,16,3,18,0.00
2012-8-18,74,60,48,55,49,42,86,70,40,30.06,29.93,23,5,24,0.00
2012-8-19,80,64,47,55,50,44,97,65,31,30.11,29.98,14,3,16,0.00
2012-8-20,88,70,52,54,49,46,84,52,24,30.04,29.89,17,3,19,0.00
2012-8-21,93,74,57,57,53,49,86,54,23,30.01,29.91,16,4,18,0.00
2012-8-22,90,76,61,63,54,49,66,48,30,29.97,29.85,34,8,37,0.00
2012-8-23,89,79,69,66,59,51,73,50,41,29.91,29.80,32,12,35,0.00
2012-8-24,76,70,68,68,66,65,94,87,73,29.88,29.82,32,10,33,0.07
2012-8-25,72,69,67,70,66,62,98,91,84,29.90,29.80,26,7,29,0.18
2012-8-26,85,72,66,70,67,65,98,85,58,30.05,29.87,13,4,16,0.01
2012-8-27,91,76,60,72,64,59,98,72,38,30.14,30.03,16,3,18,0.00
2012-8-28,93,78,64,64,60,56,92,61,30,30.10,29.89,26,8,27,0.00
2012-8-29,96,80,65,63,58,51,76,51,23,29.94,29.81,30,10,34,0.00
2012-8-30,97,82,69,62,59,54,71,49,24,29.91,29.82,29,9,31,0.00
2012-8-31,95,77,60,69,62,56,89,64,32,29.96,29.88,19,4,20,0.00
2012-9-1,92,78,66,70,66,64,95,70,44,29.98,29.88,18,5,19,0.00
2012-9-2,94,78,62,66,64,60,94,66,39,29.94,29.80,19,5,21,0.00
2012-9-3,83,76,70,74,70,65,91,81,66,29.91,29.78,24,5,25,0.01
2012-9-4,98,80,65,72,66,55,98,67,30,29.85,29.67,22,5,26,0.02
2012-9-5,87,74,62,62,54,44,83,52,23,29.92,29.67,27,8,30,0.00
2012-9-6,90,72,51,66,53,44,81,54,30,29.99,29.74,31,8,31,0.00
2012-9-7,76,66,57,66,54,44,87,65,43,30.11,29.73,30,10,34,0.01
2012-9-8,84,65,44,48,42,36,88,51,20,30.19,29.96,25,7,30,0.00
2012-9-9,76,62,48,48,45,41,81,55,32,30.23,30.06,17,5,17,0.00
2012-9-10,86,68,50,53,49,46,87,56,28,30.13,29.88,31,12,34,0.00
2012-9-11,94,76,59,54,51,47,77,46,23,29.90,29.79,38,15,38,0.00
2012-9-12,77,68,54,60,54,45,96,63,40,30.25,29.84,39,13,41,0.90
2012-9-13,68,56,50,53,50,48,96,81,50,30.43,30.22,28,6,31,0.99
2012-9-14,77,61,47,51,46,38,94,64,29,30.40,30.27,20,5,22,0.00
2012-9-15,76,61,44,60,52,41,94,74,53,30.29,30.08,22,5,23,0.00
2012-9-16,77,64,56,62,58,55,98,83,54,30.09,29.89,19,6,22,0.01
2012-9-17,64,58,48,60,52,40,98,83,53,30.07,29.88,30,8,34,0.00
2012-9-18,72,55,38,46,40,33,94,61,30,30.16,29.94,17,4,19,0.00
2012-9-19,91,67,52,53,45,35,80,50,19,29.99,29.76,40,10,40,0.00
2012-9-20,75,62,48,42,37,28,72,42,23,30.06,29.93,18,4,18,0.00
2012-9-21,76,63,52,44,38,31,69,43,20,29.94,29.82,38,12,44,0.00
2012-9-22,63,52,38,40,31,25,72,48,24,30.30,29.94,24,9,25,0.00
2012-9-23,70,52,34,37,32,29,83,51,25,30.39,30.22,15,3,16,0.00
2012-9-24,73,60,44,55,44,36,82,56,38,30.22,29.80,23,6,23,0.00
2012-9-25,83,66,51,56,49,42,93,60,25,29.87,29.79,14,4,17,0.01
2012-9-26,76,62,48,48,41,37,76,49,26,30.15,29.85,18,6,19,0.00
2012-9-27,76,58,40,39,33,21,81,46,15,30.22,30.12,15,2,16,0.00
2012-9-28,78,58,37,49,36,29,81,49,18,30.21,30.10,12,1,13,0.00
2012-9-29,79,60,42,51,42,37,92,55,23,30.19,30.04,14,1,14,0.00
2012-9-30,80,64,49,46,43,39,74,51,26,30.06,29.90,12,1,13,0.00
2012-10-1,73,61,50,52,45,41,76,58,42,29.99,29.88,34,12,36,0.01
2012-10-2,74,56,40,41,34,24,79,49,16,30.01,29.86,15,3,15,0.00
2012-10-3,80,62,44,43,37,31,69,43,19,29.92,29.77,32,9,33,0.00
2012-10-4,64,51,45,44,37,32,82,60,42,30.33,29.91,38,17,42,0.00
2012-10-5,50,42,33,32,28,21,82,59,35,30.40,30.29,22,7,24,0.00
2012-10-6,46,38,28,26,24,20,75,56,43,30.43,30.32,25,9,27,0.00
2012-10-7,56,40,25,32,26,19,85,61,32,30.36,30.08,24,6,26,0.00
2012-10-8,71,54,39,36,34,32,77,51,25,30.08,29.81,32,13,37,0.00
2012-10-9,57,50,35,44,32,22,72,51,32,30.17,29.81,32,10,36,0.00
2012-10-10,64,45,29,32,27,21,77,52,28,30.30,30.08,24,5,24,0.00
2012-10-11,64,53,46,42,34,29,61,49,36,30.35,30.03,32,13,32,0.00
2012-10-12,53,47,37,47,30,20,83,51,36,30.37,30.03,27,13,29,0.00
2012-10-13,74,63,51,66,59,47,98,88,75,30.04,29.56,26,9,30,0.51
2012-10-14,66,57,47,59,46,39,95,68,38,29.99,29.57,39,14,43,0.60
2012-10-15,74,57,41,50,44,38,90,65,38,30.00,29.75,22,6,22,0.00
2012-10-16,80,63,51,51,48,44,88,60,29,29.75,29.39,27,8,30,0.00
2012-10-17,67,58,50,52,38,20,90,50,23,29.62,29.31,45,17,49,0.02
2012-10-18,51,48,44,42,32,24,89,56,37,29.68,29.55,54,25,59,0.02
2012-10-19,49,44,36,42,40,34,94,84,76,29.86,29.66,42,17,43,0.04
2012-10-20,66,49,34,46,40,32,97,75,44,29.86,29.69,24,8,28,0.00
2012-10-21,80,62,47,65,54,42,90,78,58,29.78,29.68,25,10,31,0.00
2012-10-22,68,60,55,65,58,54,98,95,88,29.79,29.71,16,7,19,0.07
2012-10-23,80,61,52,65,57,52,100,89,54,29.79,29.62,20,7,25,0.01
2012-10-24,58,54,46,57,53,46,99,98,95,29.78,29.71,26,10,28,0.01
2012-10-25,46,38,35,45,35,28,97,87,74,30.39,29.67,44,23,44,0.01
2012-10-26,41,35,28,29,27,24,88,74,59,30.58,30.38,23,9,27,0.04
2012-10-27,45,34,23,31,27,20,91,75,55,30.47,30.31,16,4,17,0.08
2012-10-28,51,42,32,34,31,28,92,68,48,30.37,30.24,25,10,25,0.00
2012-10-29,58,47,41,36,33,31,72,60,42,30.27,30.10,30,15,33,0.00
2012-10-30,56,42,35,33,31,28,83,65,40,30.12,30.05,21,8,22,0.00
2012-10-31,62,44,31,39,32,25,89,64,38,30.12,30.00,12,2,13,0.00
2012-11-1,58,48,38,43,40,35,93,75,54,30.02,29.95,22,6,23,0.00
2012-11-2,55,43,36,37,33,31,94,70,42,30.11,29.94,27,10,29,0.00
2012-11-3,53,39,29,37,32,26,92,75,51,30.26,30.11,15,6,17,0.00
2012-11-4,61,48,37,44,39,33,94,73,46,30.23,30.01,28,6,31,0.00
2012-11-5,45,41,39,43,39,37,95,93,88,30.18,30.05,33,13,34,0.02
2012-11-6,57,46,38,40,34,29,94,67,36,30.12,29.98,38,14,41,0.02
2012-11-7,54,42,32,35,32,28,86,68,46,30.23,30.05,17,6,17,0.00
2012-11-8,66,50,38,43,37,31,81,63,38,30.06,29.86,27,9,28,0.00
2012-11-9,68,55,39,57,48,37,94,78,59,29.87,29.62,25,9,25,0.00
2012-11-10,76,66,44,59,56,42,94,73,54,29.64,29.43,45,20,48,0.00
2012-11-11,44,29,22,41,22,15,95,76,54,30.24,29.63,33,18,37,0.00
2012-11-12,41,30,21,23,18,15,82,63,38,30.44,30.24,33,8,36,0.04
2012-11-13,57,38,22,32,25,17,85,61,24,30.44,30.31,24,7,25,0.07
2012-11-14,58,44,32,32,29,25,81,57,29,30.35,30.22,24,8,27,0.00
2012-11-15,58,46,33,36,32,28,84,61,40,30.46,30.22,19,7,21,0.00
2012-11-16,56,39,22,38,32,21,95,76,47,30.50,30.34,21,7,23,0.00
2012-11-17,62,47,36,39,35,32,92,66,39,30.35,30.17,34,14,34,0.00
2012-11-18,61,50,40,41,35,30,70,55,38,30.18,30.04,27,15,32,0.00
2012-11-19,62,50,40,43,39,34,89,67,47,30.15,30.01,21,8,23,0.00
2012-11-20,64,46,32,40,35,30,90,67,34,30.27,30.14,15,4,15,0.00
2012-11-21,71,58,42,49,43,35,78,60,37,30.15,29.80,45,16,45,0.00
2012-11-22,62,52,37,48,40,29,82,65,45,30.27,29.72,39,14,42,0.01
2012-11-23,42,28,18,30,13,7,69,53,35,30.55,30.26,48,14,49,0.00
2012-11-24,48,34,18,28,19,9,78,56,37,30.46,29.91,29,8,32,0.00
2012-11-25,43,37,28,31,28,23,87,70,56,30.17,29.92,19,6,19,0.00
2012-11-26,33,27,12,28,22,8,91,79,68,30.51,30.17,22,8,24,0.00
2012-11-27,43,26,12,27,19,8,92,75,51,30.50,30.27,28,6,31,0.00
2012-11-28,50,35,19,31,26,17,94,73,39,30.43,30.13,23,7,24,0.00
2012-11-29,57,42,31,40,34,27,91,75,53,30.15,29.95,13,4,16,0.00
2012-11-30,48,38,31,35,31,26,92,76,61,30.13,29.98,21,7,23,0.00
2012-12-1,59,48,36,56,46,32,98,94,83,29.99,29.78,19,6,20,0.00
2012-12-2,66,48,33,49,42,31,96,81,50,30.04,29.78,25,7,25,0.00
2012-12-3,61,50,39,51,41,27,98,73,45,30.11,29.61,41,12,41,0.02
2012-12-4,60,44,33,28,25,22,65,49,24,30.32,30.11,13,4,13,0.00
2012-12-5,59,44,32,32,27,23,79,53,26,30.32,29.95,34,13,39,0.00
2012-12-6,50,46,41,34,30,27,65,54,41,30.02,29.87,30,11,30,0.00
2012-12-7,46,37,27,32,27,23,92,69,51,30.02,29.90,16,6,18,0.00
2012-12-8,39,33,26,32,29,24,95,85,71,30.06,29.91,21,8,22,0.00
2012-12-9,37,26,15,35,19,6,94,75,59,30.18,29.86,41,20,44,0.00
2012-12-10,30,17,4,8,4,0,92,61,34,30.19,30.00,32,9,38,0.00
2012-12-11,45,31,20,23,18,7,80,58,41,30.11,30.00,23,7,25,0.00
2012-12-12,53,39,30,21,18,17,63,44,25,30.07,29.96,40,17,44,0.00
2012-12-13,53,39,27,25,21,16,70,49,33,30.10,29.99,22,6,24,0.00
2012-12-14,56,40,23,41,30,17,88,69,51,30.08,29.59,35,12,35,0.05
2012-12-15,46,41,33,44,39,31,97,93,90,29.75,29.44,33,13,33,0.44
2012-12-16,34,31,29,32,29,27,95,92,87,29.86,29.74,18,8,18,0.00
2012-12-17,31,28,26,29,27,24,96,94,89,29.85,29.61,16,6,18,0.00
2012-12-18,45,35,27,38,31,26,96,87,74,29.90,29.52,31,8,35,0.00
2012-12-19,35,33,31,34,32,29,100,95,91,29.93,29.73,38,11,38,0.09
2012-12-20,20,19,15,19,17,13,94,94,93,30.30,30.01,38,15,43,0.00
2012-12-21,28,20,11,28,19,9,98,95,91,30.42,30.23,13,5,15,0.01
2012-12-22,32,24,18,32,23,16,98,95,93,30.23,29.99,17,7,18,0.01
2012-12-23,19,14,9,17,12,7,94,91,90,30.12,30.04,16,8,17,0.00
2012-12-24,16,13,7,14,10,4,92,88,84,30.32,30.09,26,14,28,0.00
2012-12-25,14,8,2,11,4,-1,88,85,82,30.56,30.30,28,14,28,0.01
2012-12-26,13,7,1,9,4,-2,99,87,81,30.45,30.24,16,6,17,0.00
2012-12-27,24,20,10,22,17,7,93,90,88,30.25,30.04,20,8,21,0.00
2012-12-28,23,20,17,21,17,14,94,91,87,30.18,30.04,27,12,28,0.00
2012-12-29,28,18,7,21,14,4,92,84,73,30.32,30.18,19,4,19,0.00
2012-12-30,44,29,16,29,22,13,88,74,50,30.32,30.03,37,10,39,0.00
2012-12-31,26,21,17,20,17,14,92,86,77,30.30,30.14,23,11,25,0.00
2013-1-1,21,14,6,14,10,3,90,81,61,30.41,30.21,14,6,16,0.00